sensor_id;sensor_type;location;lat;lon;timestamp;P1;durP1;ratioP1;P2;durP2;ratioP2
75506;SDS011;64086;43.220;27.878;2023-04-03T00:01:19;7.40;;;5.68;;
75506;SDS011;64086;43.220;27.878;2023-04-03T00:03:44;6.47;;;5.20;;
75506;SDS011;64086;43.220;27.878;2023-04-03T00:06:11;5.35;;;4.63;;
75506;SDS011;64086;43.220;27.878;2023-04-03T00:08:37;6.05;;;4.78;;
75506;SDS011;64086;43.220;27.878;2023-04-03T00:11:03;6.55;;;4.75;;
75506;SDS011;64086;43.220;27.878;2023-04-03T00:13:28;6.47;;;4.53;;
75506;SDS011;64086;43.220;27.878;2023-04-03T00:15:54;6.68;;;4.47;;
75506;SDS011;64086;43.220;27.878;2023-04-03T00:18:19;7.93;;;5.18;;
75506;SDS011;64086;43.220;27.878;2023-04-03T00:20:45;7.43;;;5.32;;
75506;SDS011;64086;43.220;27.878;2023-04-03T00:23:11;7.13;;;5.22;;
75506;SDS011;64086;43.220;27.878;2023-04-03T00:25:36;8.50;;;5.47;;
75506;SDS011;64086;43.220;27.878;2023-04-03T00:28:02;5.95;;;4.78;;
75506;SDS011;64086;43.220;27.878;2023-04-03T00:30:29;7.53;;;5.30;;
75506;SDS011;64086;43.220;27.878;2023-04-03T00:32:54;6.10;;;4.82;;
75506;SDS011;64086;43.220;27.878;2023-04-03T00:35:20;6.45;;;5.15;;
75506;SDS011;64086;43.220;27.878;2023-04-03T00:37:46;8.38;;;5.50;;
75506;SDS011;64086;43.220;27.878;2023-04-03T00:40:13;7.43;;;4.95;;
75506;SDS011;64086;43.220;27.878;2023-04-03T00:42:40;5.82;;;4.85;;
75506;SDS011;64086;43.220;27.878;2023-04-03T00:47:52;10.38;;;6.78;;
75506;SDS011;64086;43.220;27.878;2023-04-03T00:50:17;12.10;;;6.90;;
75506;SDS011;64086;43.220;27.878;2023-04-03T00:52:43;9.85;;;6.53;;
75506;SDS011;64086;43.220;27.878;2023-04-03T00:55:11;6.90;;;5.40;;
75506;SDS011;64086;43.220;27.878;2023-04-03T00:57:37;7.57;;;5.72;;
75506;SDS011;64086;43.220;27.878;2023-04-03T01:00:05;9.40;;;5.78;;
75506;SDS011;64086;43.220;27.878;2023-04-03T01:02:34;7.10;;;5.47;;
75506;SDS011;64086;43.220;27.878;2023-04-03T01:05:00;6.70;;;5.40;;
75506;SDS011;64086;43.220;27.878;2023-04-03T01:07:31;7.78;;;5.57;;
75506;SDS011;64086;43.220;27.878;2023-04-03T01:10:00;5.70;;;5.10;;
75506;SDS011;64086;43.220;27.878;2023-04-03T01:12:31;6.63;;;5.38;;
75506;SDS011;64086;43.220;27.878;2023-04-03T01:15:09;6.90;;;5.65;;
75506;SDS011;64086;43.220;27.878;2023-04-03T01:17:59;7.10;;;5.53;;
75506;SDS011;64086;43.220;27.878;2023-04-03T01:25:35;6.53;;;5.80;;
75506;SDS011;64086;43.220;27.878;2023-04-03T01:28:01;7.95;;;5.57;;
75506;SDS011;64086;43.220;27.878;2023-04-03T01:30:30;7.78;;;6.55;;
75506;SDS011;64086;43.220;27.878;2023-04-03T01:32:57;7.70;;;5.68;;
75506;SDS011;64086;43.220;27.878;2023-04-03T01:35:23;7.07;;;5.40;;
75506;SDS011;64086;43.220;27.878;2023-04-03T01:37:48;6.80;;;5.65;;
75506;SDS011;64086;43.220;27.878;2023-04-03T01:40:14;7.60;;;6.03;;
75506;SDS011;64086;43.220;27.878;2023-04-03T01:42:40;9.10;;;6.60;;
75506;SDS011;64086;43.220;27.878;2023-04-03T01:45:05;10.02;;;6.53;;
75506;SDS011;64086;43.220;27.878;2023-04-03T01:47:31;7.75;;;6.53;;
75506;SDS011;64086;43.220;27.878;2023-04-03T01:49:56;8.68;;;6.80;;
75506;SDS011;64086;43.220;27.878;2023-04-03T01:52:22;8.43;;;6.55;;
75506;SDS011;64086;43.220;27.878;2023-04-03T01:54:47;7.47;;;6.53;;
75506;SDS011;64086;43.220;27.878;2023-04-03T01:57:13;9.35;;;7.20;;
75506;SDS011;64086;43.220;27.878;2023-04-03T01:59:40;8.75;;;6.60;;
75506;SDS011;64086;43.220;27.878;2023-04-03T02:02:05;10.80;;;6.80;;
75506;SDS011;64086;43.220;27.878;2023-04-03T02:04:31;8.93;;;6.85;;
75506;SDS011;64086;43.220;27.878;2023-04-03T02:06:56;10.18;;;7.15;;
75506;SDS011;64086;43.220;27.878;2023-04-03T02:09:22;9.63;;;7.50;;
75506;SDS011;64086;43.220;27.878;2023-04-03T02:11:47;10.20;;;7.90;;
75506;SDS011;64086;43.220;27.878;2023-04-03T02:14:13;13.95;;;10.57;;
75506;SDS011;64086;43.220;27.878;2023-04-03T02:16:38;13.73;;;10.60;;
75506;SDS011;64086;43.220;27.878;2023-04-03T02:19:04;23.38;;;17.52;;
75506;SDS011;64086;43.220;27.878;2023-04-03T02:21:29;29.65;;;23.05;;
75506;SDS011;64086;43.220;27.878;2023-04-03T02:23:55;32.00;;;23.30;;
75506;SDS011;64086;43.220;27.878;2023-04-03T02:26:21;29.55;;;22.90;;
75506;SDS011;64086;43.220;27.878;2023-04-03T02:28:47;32.53;;;23.98;;
75506;SDS011;64086;43.220;27.878;2023-04-03T02:31:12;39.70;;;30.17;;
75506;SDS011;64086;43.220;27.878;2023-04-03T02:33:38;40.72;;;31.38;;
75506;SDS011;64086;43.220;27.878;2023-04-03T02:36:04;44.17;;;34.92;;
75506;SDS011;64086;43.220;27.878;2023-04-03T02:38:30;46.42;;;33.38;;
75506;SDS011;64086;43.220;27.878;2023-04-03T02:41:00;43.35;;;33.15;;
75506;SDS011;64086;43.220;27.878;2023-04-03T02:43:26;36.50;;;29.90;;
75506;SDS011;64086;43.220;27.878;2023-04-03T02:45:51;35.63;;;29.25;;
75506;SDS011;64086;43.220;27.878;2023-04-03T02:48:17;38.38;;;29.10;;
75506;SDS011;64086;43.220;27.878;2023-04-03T02:50:42;31.70;;;25.50;;
75506;SDS011;64086;43.220;27.878;2023-04-03T02:53:08;29.45;;;24.08;;
75506;SDS011;64086;43.220;27.878;2023-04-03T02:55:33;29.02;;;22.77;;
75506;SDS011;64086;43.220;27.878;2023-04-03T02:57:59;27.77;;;22.00;;
75506;SDS011;64086;43.220;27.878;2023-04-03T03:00:24;27.40;;;21.15;;
75506;SDS011;64086;43.220;27.878;2023-04-03T03:02:50;27.23;;;19.02;;
75506;SDS011;64086;43.220;27.878;2023-04-03T03:05:15;24.35;;;18.05;;
75506;SDS011;64086;43.220;27.878;2023-04-03T03:07:41;18.40;;;14.93;;
75506;SDS011;64086;43.220;27.878;2023-04-03T03:10:06;22.75;;;17.42;;
75506;SDS011;64086;43.220;27.878;2023-04-03T03:12:32;23.17;;;18.67;;
75506;SDS011;64086;43.220;27.878;2023-04-03T03:14:57;23.33;;;18.90;;
75506;SDS011;64086;43.220;27.878;2023-04-03T03:17:23;20.85;;;17.25;;
75506;SDS011;64086;43.220;27.878;2023-04-03T03:19:48;20.70;;;16.15;;
75506;SDS011;64086;43.220;27.878;2023-04-03T03:22:14;23.65;;;19.08;;
75506;SDS011;64086;43.220;27.878;2023-04-03T03:24:39;26.25;;;20.58;;
75506;SDS011;64086;43.220;27.878;2023-04-03T03:27:05;23.52;;;19.42;;
75506;SDS011;64086;43.220;27.878;2023-04-03T03:29:30;24.65;;;19.92;;
75506;SDS011;64086;43.220;27.878;2023-04-03T03:31:56;26.52;;;20.55;;
75506;SDS011;64086;43.220;27.878;2023-04-03T03:34:21;26.98;;;19.67;;
75506;SDS011;64086;43.220;27.878;2023-04-03T03:36:46;25.30;;;19.85;;
75506;SDS011;64086;43.220;27.878;2023-04-03T03:39:12;23.83;;;20.25;;
75506;SDS011;64086;43.220;27.878;2023-04-03T03:41:37;26.67;;;20.00;;
75506;SDS011;64086;43.220;27.878;2023-04-03T03:44:03;26.05;;;19.33;;
75506;SDS011;64086;43.220;27.878;2023-04-03T03:46:28;25.10;;;20.48;;
75506;SDS011;64086;43.220;27.878;2023-04-03T03:48:54;26.15;;;20.30;;
75506;SDS011;64086;43.220;27.878;2023-04-03T03:51:19;23.73;;;20.45;;
75506;SDS011;64086;43.220;27.878;2023-04-03T03:53:45;27.73;;;22.33;;
75506;SDS011;64086;43.220;27.878;2023-04-03T03:56:10;30.48;;;24.50;;
75506;SDS011;64086;43.220;27.878;2023-04-03T03:58:36;35.05;;;25.58;;
75506;SDS011;64086;43.220;27.878;2023-04-03T04:01:05;33.95;;;25.80;;
75506;SDS011;64086;43.220;27.878;2023-04-03T04:03:31;29.88;;;23.70;;
75506;SDS011;64086;43.220;27.878;2023-04-03T04:05:57;32.88;;;24.77;;
75506;SDS011;64086;43.220;27.878;2023-04-03T04:08:22;30.50;;;22.92;;
75506;SDS011;64086;43.220;27.878;2023-04-03T04:10:48;27.48;;;21.60;;
75506;SDS011;64086;43.220;27.878;2023-04-03T04:13:14;26.15;;;20.75;;
75506;SDS011;64086;43.220;27.878;2023-04-03T04:15:39;25.90;;;20.52;;
75506;SDS011;64086;43.220;27.878;2023-04-03T04:18:05;23.77;;;19.60;;
75506;SDS011;64086;43.220;27.878;2023-04-03T04:20:30;24.75;;;18.05;;
75506;SDS011;64086;43.220;27.878;2023-04-03T04:22:56;24.38;;;18.83;;
75506;SDS011;64086;43.220;27.878;2023-04-03T04:25:21;24.25;;;18.38;;
75506;SDS011;64086;43.220;27.878;2023-04-03T04:27:47;21.80;;;17.98;;
75506;SDS011;64086;43.220;27.878;2023-04-03T04:30:13;25.50;;;16.90;;
75506;SDS011;64086;43.220;27.878;2023-04-03T04:32:38;20.20;;;17.40;;
75506;SDS011;64086;43.220;27.878;2023-04-03T04:35:04;21.40;;;18.77;;
75506;SDS011;64086;43.220;27.878;2023-04-03T04:37:30;21.52;;;17.73;;
75506;SDS011;64086;43.220;27.878;2023-04-03T04:39:56;22.75;;;17.73;;
75506;SDS011;64086;43.220;27.878;2023-04-03T04:42:21;19.48;;;16.35;;
75506;SDS011;64086;43.220;27.878;2023-04-03T04:44:47;20.65;;;16.20;;
75506;SDS011;64086;43.220;27.878;2023-04-03T04:47:12;20.42;;;16.40;;
75506;SDS011;64086;43.220;27.878;2023-04-03T04:49:38;19.83;;;15.48;;
75506;SDS011;64086;43.220;27.878;2023-04-03T04:52:03;17.48;;;12.82;;
75506;SDS011;64086;43.220;27.878;2023-04-03T04:54:29;14.05;;;9.18;;
75506;SDS011;64086;43.220;27.878;2023-04-03T04:56:54;12.75;;;11.35;;
75506;SDS011;64086;43.220;27.878;2023-04-03T04:59:20;11.00;;;9.35;;
75506;SDS011;64086;43.220;27.878;2023-04-03T05:01:45;9.00;;;7.68;;
75506;SDS011;64086;43.220;27.878;2023-04-03T05:04:11;13.07;;;6.75;;
75506;SDS011;64086;43.220;27.878;2023-04-03T05:06:37;11.20;;;7.55;;
75506;SDS011;64086;43.220;27.878;2023-04-03T05:09:03;12.70;;;9.48;;
75506;SDS011;64086;43.220;27.878;2023-04-03T05:11:29;20.30;;;15.18;;
75506;SDS011;64086;43.220;27.878;2023-04-03T05:13:54;24.90;;;20.27;;
75506;SDS011;64086;43.220;27.878;2023-04-03T05:16:20;20.08;;;14.60;;
75506;SDS011;64086;43.220;27.878;2023-04-03T05:18:45;19.80;;;14.02;;
75506;SDS011;64086;43.220;27.878;2023-04-03T05:21:10;18.35;;;13.75;;
75506;SDS011;64086;43.220;27.878;2023-04-03T05:23:36;19.58;;;14.10;;
75506;SDS011;64086;43.220;27.878;2023-04-03T05:26:01;19.58;;;14.63;;
75506;SDS011;64086;43.220;27.878;2023-04-03T05:28:27;18.73;;;13.60;;
75506;SDS011;64086;43.220;27.878;2023-04-03T05:30:53;16.40;;;13.93;;
75506;SDS011;64086;43.220;27.878;2023-04-03T05:33:20;19.42;;;13.90;;
75506;SDS011;64086;43.220;27.878;2023-04-03T05:35:46;14.95;;;12.32;;
75506;SDS011;64086;43.220;27.878;2023-04-03T05:38:11;16.48;;;12.95;;
75506;SDS011;64086;43.220;27.878;2023-04-03T05:40:37;18.30;;;13.60;;
75506;SDS011;64086;43.220;27.878;2023-04-03T05:43:02;17.75;;;13.82;;
75506;SDS011;64086;43.220;27.878;2023-04-03T05:45:28;15.25;;;11.85;;
75506;SDS011;64086;43.220;27.878;2023-04-03T05:47:53;14.75;;;11.35;;
75506;SDS011;64086;43.220;27.878;2023-04-03T05:50:19;11.70;;;9.20;;
75506;SDS011;64086;43.220;27.878;2023-04-03T05:52:45;15.32;;;9.07;;
75506;SDS011;64086;43.220;27.878;2023-04-03T05:55:12;15.80;;;8.60;;
75506;SDS011;64086;43.220;27.878;2023-04-03T05:57:37;9.35;;;6.85;;
75506;SDS011;64086;43.220;27.878;2023-04-03T06:00:07;9.07;;;6.10;;
75506;SDS011;64086;43.220;27.878;2023-04-03T06:02:34;5.25;;;4.55;;
75506;SDS011;64086;43.220;27.878;2023-04-03T06:05:00;5.30;;;3.80;;
75506;SDS011;64086;43.220;27.878;2023-04-03T06:07:26;4.47;;;3.75;;
75506;SDS011;64086;43.220;27.878;2023-04-03T06:09:53;3.92;;;3.53;;
75506;SDS011;64086;43.220;27.878;2023-04-03T06:12:20;4.82;;;3.42;;
75506;SDS011;64086;43.220;27.878;2023-04-03T06:14:46;4.32;;;3.00;;
75506;SDS011;64086;43.220;27.878;2023-04-03T06:17:12;3.38;;;2.90;;
75506;SDS011;64086;43.220;27.878;2023-04-03T06:19:38;4.03;;;3.20;;
75506;SDS011;64086;43.220;27.878;2023-04-03T06:22:03;3.65;;;3.03;;
75506;SDS011;64086;43.220;27.878;2023-04-03T06:24:29;3.47;;;3.17;;
75506;SDS011;64086;43.220;27.878;2023-04-03T06:26:55;4.05;;;3.42;;
75506;SDS011;64086;43.220;27.878;2023-04-03T06:29:21;4.43;;;3.20;;
75506;SDS011;64086;43.220;27.878;2023-04-03T06:31:47;4.25;;;3.00;;
75506;SDS011;64086;43.220;27.878;2023-04-03T06:34:13;3.60;;;3.30;;
75506;SDS011;64086;43.220;27.878;2023-04-03T06:36:39;4.30;;;3.10;;
75506;SDS011;64086;43.220;27.878;2023-04-03T06:39:05;4.47;;;3.33;;
75506;SDS011;64086;43.220;27.878;2023-04-03T06:41:32;3.45;;;3.05;;
75506;SDS011;64086;43.220;27.878;2023-04-03T06:43:58;3.75;;;3.38;;
75506;SDS011;64086;43.220;27.878;2023-04-03T06:46:24;5.13;;;3.40;;
75506;SDS011;64086;43.220;27.878;2023-04-03T06:48:50;4.25;;;3.85;;
75506;SDS011;64086;43.220;27.878;2023-04-03T06:51:20;3.30;;;3.00;;
75506;SDS011;64086;43.220;27.878;2023-04-03T06:53:48;4.32;;;3.30;;
75506;SDS011;64086;43.220;27.878;2023-04-03T06:56:14;3.42;;;3.10;;
75506;SDS011;64086;43.220;27.878;2023-04-03T06:58:40;4.05;;;3.47;;
75506;SDS011;64086;43.220;27.878;2023-04-03T07:01:06;4.55;;;3.63;;
75506;SDS011;64086;43.220;27.878;2023-04-03T07:03:32;3.47;;;3.10;;
75506;SDS011;64086;43.220;27.878;2023-04-03T07:05:57;3.45;;;3.15;;
75506;SDS011;64086;43.220;27.878;2023-04-03T07:08:24;3.63;;;3.33;;
75506;SDS011;64086;43.220;27.878;2023-04-03T07:10:51;5.55;;;4.63;;
75506;SDS011;64086;43.220;27.878;2023-04-03T07:13:16;5.45;;;4.70;;
75506;SDS011;64086;43.220;27.878;2023-04-03T07:15:42;6.40;;;4.70;;
75506;SDS011;64086;43.220;27.878;2023-04-03T07:18:07;4.82;;;4.38;;
75506;SDS011;64086;43.220;27.878;2023-04-03T07:20:33;4.93;;;4.30;;
75506;SDS011;64086;43.220;27.878;2023-04-03T07:22:58;6.15;;;4.20;;
75506;SDS011;64086;43.220;27.878;2023-04-03T07:25:25;4.60;;;4.15;;
75506;SDS011;64086;43.220;27.878;2023-04-03T07:27:50;5.60;;;3.75;;
75506;SDS011;64086;43.220;27.878;2023-04-03T07:30:15;4.88;;;4.07;;
75506;SDS011;64086;43.220;27.878;2023-04-03T07:32:41;5.53;;;4.70;;
75506;SDS011;64086;43.220;27.878;2023-04-03T07:35:07;6.22;;;4.50;;
75506;SDS011;64086;43.220;27.878;2023-04-03T07:37:32;6.22;;;4.18;;
75506;SDS011;64086;43.220;27.878;2023-04-03T07:39:58;4.97;;;4.00;;
75506;SDS011;64086;43.220;27.878;2023-04-03T07:42:24;6.95;;;4.35;;
75506;SDS011;64086;43.220;27.878;2023-04-03T07:44:52;5.10;;;4.10;;
75506;SDS011;64086;43.220;27.878;2023-04-03T07:47:18;5.10;;;3.88;;
75506;SDS011;64086;43.220;27.878;2023-04-03T07:49:45;5.20;;;3.70;;
75506;SDS011;64086;43.220;27.878;2023-04-03T07:52:11;4.53;;;3.97;;
75506;SDS011;64086;43.220;27.878;2023-04-03T07:54:36;6.03;;;4.28;;
75506;SDS011;64086;43.220;27.878;2023-04-03T07:57:02;5.65;;;4.10;;
75506;SDS011;64086;43.220;27.878;2023-04-03T07:59:27;4.97;;;4.18;;
75506;SDS011;64086;43.220;27.878;2023-04-03T08:01:53;5.80;;;5.20;;
75506;SDS011;64086;43.220;27.878;2023-04-03T08:04:18;4.75;;;4.03;;
75506;SDS011;64086;43.220;27.878;2023-04-03T08:06:44;5.68;;;4.28;;
75506;SDS011;64086;43.220;27.878;2023-04-03T08:09:10;5.15;;;4.18;;
75506;SDS011;64086;43.220;27.878;2023-04-03T08:11:35;5.07;;;4.18;;
75506;SDS011;64086;43.220;27.878;2023-04-03T08:14:04;3.50;;;3.20;;
75506;SDS011;64086;43.220;27.878;2023-04-03T08:16:29;5.70;;;4.90;;
75506;SDS011;64086;43.220;27.878;2023-04-03T08:18:55;7.38;;;5.95;;
75506;SDS011;64086;43.220;27.878;2023-04-03T08:21:20;6.38;;;5.40;;
75506;SDS011;64086;43.220;27.878;2023-04-03T08:23:47;6.55;;;5.93;;
75506;SDS011;64086;43.220;27.878;2023-04-03T08:26:16;7.25;;;5.00;;
75506;SDS011;64086;43.220;27.878;2023-04-03T08:28:43;7.57;;;5.38;;
75506;SDS011;64086;43.220;27.878;2023-04-03T08:31:10;6.22;;;4.93;;
75506;SDS011;64086;43.220;27.878;2023-04-03T08:33:37;5.70;;;4.90;;
75506;SDS011;64086;43.220;27.878;2023-04-03T08:36:04;5.85;;;5.25;;
75506;SDS011;64086;43.220;27.878;2023-04-03T08:38:31;6.13;;;5.53;;
75506;SDS011;64086;43.220;27.878;2023-04-03T08:41:39;6.18;;;5.50;;
75506;SDS011;64086;43.220;27.878;2023-04-03T08:44:02;6.57;;;5.93;;
75506;SDS011;64086;43.220;27.878;2023-04-03T08:46:36;6.25;;;5.45;;
75506;SDS011;64086;43.220;27.878;2023-04-03T08:52:01;5.82;;;5.25;;
75506;SDS011;64086;43.220;27.878;2023-04-03T08:56:56;6.32;;;5.68;;
75506;SDS011;64086;43.220;27.878;2023-04-03T08:59:24;7.50;;;6.50;;
75506;SDS011;64086;43.220;27.878;2023-04-03T09:01:53;7.78;;;6.20;;
75506;SDS011;64086;43.220;27.878;2023-04-03T09:04:19;6.95;;;5.70;;
75506;SDS011;64086;43.220;27.878;2023-04-03T09:06:46;6.90;;;6.20;;
75506;SDS011;64086;43.220;27.878;2023-04-03T09:12:09;7.37;;;6.60;;
75506;SDS011;64086;43.220;27.878;2023-04-03T09:14:46;6.00;;;5.40;;
75506;SDS011;64086;43.220;27.878;2023-04-03T09:17:35;6.28;;;5.68;;
75506;SDS011;64086;43.220;27.878;2023-04-03T09:23:09;6.50;;;5.72;;
75506;SDS011;64086;43.220;27.878;2023-04-03T09:25:40;6.65;;;6.00;;
75506;SDS011;64086;43.220;27.878;2023-04-03T09:28:06;6.78;;;5.82;;
75506;SDS011;64086;43.220;27.878;2023-04-03T09:30:34;6.90;;;6.28;;
75506;SDS011;64086;43.220;27.878;2023-04-03T09:33:00;6.90;;;6.22;;
75506;SDS011;64086;43.220;27.878;2023-04-03T09:35:30;6.82;;;6.18;;
75506;SDS011;64086;43.220;27.878;2023-04-03T09:38:01;8.00;;;7.20;;
75506;SDS011;64086;43.220;27.878;2023-04-03T09:40:37;10.38;;;8.02;;
75506;SDS011;64086;43.220;27.878;2023-04-03T09:43:24;8.77;;;7.68;;
75506;SDS011;64086;43.220;27.878;2023-04-03T09:45:54;8.40;;;7.50;;
75506;SDS011;64086;43.220;27.878;2023-04-03T09:48:21;8.00;;;7.25;;
75506;SDS011;64086;43.220;27.878;2023-04-03T09:53:42;7.53;;;6.82;;
75506;SDS011;64086;43.220;27.878;2023-04-03T09:56:19;8.82;;;7.55;;
75506;SDS011;64086;43.220;27.878;2023-04-03T10:06:39;7.18;;;6.47;;
75506;SDS011;64086;43.220;27.878;2023-04-03T10:09:16;9.45;;;6.82;;
75506;SDS011;64086;43.220;27.878;2023-04-03T10:14:23;7.65;;;6.85;;
75506;SDS011;64086;43.220;27.878;2023-04-03T10:16:52;8.73;;;7.07;;
75506;SDS011;64086;43.220;27.878;2023-04-03T10:19:42;8.52;;;7.40;;
75506;SDS011;64086;43.220;27.878;2023-04-03T10:25:01;9.00;;;7.03;;
75506;SDS011;64086;43.220;27.878;2023-04-03T10:46:13;7.45;;;5.20;;
75506;SDS011;64086;43.220;27.878;2023-04-03T10:51:22;5.72;;;4.90;;
75506;SDS011;64086;43.220;27.878;2023-04-03T10:54:05;7.47;;;5.07;;
75506;SDS011;64086;43.220;27.878;2023-04-03T10:56:48;6.13;;;4.93;;
75506;SDS011;64086;43.220;27.878;2023-04-03T11:02:02;6.20;;;5.30;;
75506;SDS011;64086;43.220;27.878;2023-04-03T11:04:31;6.93;;;5.75;;
75506;SDS011;64086;43.220;27.878;2023-04-03T11:07:01;6.45;;;4.93;;
75506;SDS011;64086;43.220;27.878;2023-04-03T11:09:32;6.65;;;5.45;;
75506;SDS011;64086;43.220;27.878;2023-04-03T11:14:51;6.75;;;5.13;;
75506;SDS011;64086;43.220;27.878;2023-04-03T11:22:34;5.30;;;4.53;;
75506;SDS011;64086;43.220;27.878;2023-04-03T11:28:15;6.43;;;4.88;;
75506;SDS011;64086;43.220;27.878;2023-04-03T11:36:33;5.72;;;4.47;;
75506;SDS011;64086;43.220;27.878;2023-04-03T11:39:26;6.95;;;5.10;;
75506;SDS011;64086;43.220;27.878;2023-04-03T11:41:54;6.43;;;4.78;;
75506;SDS011;64086;43.220;27.878;2023-04-03T11:47:02;5.72;;;4.22;;
75506;SDS011;64086;43.220;27.878;2023-04-03T11:57:43;6.78;;;4.45;;
75506;SDS011;64086;43.220;27.878;2023-04-03T12:05:50;6.00;;;4.55;;
75506;SDS011;64086;43.220;27.878;2023-04-03T12:08:27;5.95;;;4.88;;
75506;SDS011;64086;43.220;27.878;2023-04-03T12:16:25;7.22;;;5.15;;
75506;SDS011;64086;43.220;27.878;2023-04-03T12:26:36;8.60;;;5.90;;
75506;SDS011;64086;43.220;27.878;2023-04-03T12:48:38;9.38;;;6.65;;
75506;SDS011;64086;43.220;27.878;2023-04-03T12:54:01;8.15;;;6.70;;
75506;SDS011;64086;43.220;27.878;2023-04-03T12:56:30;6.93;;;5.72;;
75506;SDS011;64086;43.220;27.878;2023-04-03T13:01:42;6.20;;;4.95;;
75506;SDS011;64086;43.220;27.878;2023-04-03T13:04:09;7.15;;;4.63;;
75506;SDS011;64086;43.220;27.878;2023-04-03T13:06:40;5.32;;;4.38;;
75506;SDS011;64086;43.220;27.878;2023-04-03T13:09:17;5.72;;;3.90;;
75506;SDS011;64086;43.220;27.878;2023-04-03T13:11:46;9.75;;;6.40;;
75506;SDS011;64086;43.220;27.878;2023-04-03T13:14:15;8.32;;;6.63;;
75506;SDS011;64086;43.220;27.878;2023-04-03T13:16:51;9.98;;;7.68;;
75506;SDS011;64086;43.220;27.878;2023-04-03T13:19:34;10.27;;;7.93;;
75506;SDS011;64086;43.220;27.878;2023-04-03T13:22:16;9.57;;;7.53;;
75506;SDS011;64086;43.220;27.878;2023-04-03T13:25:08;8.68;;;7.03;;
75506;SDS011;64086;43.220;27.878;2023-04-03T13:27:35;9.15;;;7.20;;
75506;SDS011;64086;43.220;27.878;2023-04-03T13:30:02;8.40;;;6.80;;
75506;SDS011;64086;43.220;27.878;2023-04-03T13:32:29;8.00;;;5.75;;
75506;SDS011;64086;43.220;27.878;2023-04-03T13:34:56;7.57;;;5.40;;
75506;SDS011;64086;43.220;27.878;2023-04-03T13:37:23;6.15;;;4.90;;
75506;SDS011;64086;43.220;27.878;2023-04-03T13:40:00;6.88;;;4.60;;
75506;SDS011;64086;43.220;27.878;2023-04-03T13:42:30;6.53;;;4.43;;
75506;SDS011;64086;43.220;27.878;2023-04-03T13:45:17;10.27;;;4.72;;
75506;SDS011;64086;43.220;27.878;2023-04-03T13:47:54;7.40;;;5.03;;
75506;SDS011;64086;43.220;27.878;2023-04-03T13:50:33;6.53;;;4.53;;
75506;SDS011;64086;43.220;27.878;2023-04-03T13:53:41;5.85;;;4.00;;
75506;SDS011;64086;43.220;27.878;2023-04-03T13:56:19;6.97;;;4.00;;
75506;SDS011;64086;43.220;27.878;2023-04-03T13:59:21;7.78;;;5.10;;
75506;SDS011;64086;43.220;27.878;2023-04-03T14:06:43;7.75;;;6.20;;
75506;SDS011;64086;43.220;27.878;2023-04-03T14:09:09;9.50;;;6.03;;
75506;SDS011;64086;43.220;27.878;2023-04-03T14:11:35;9.55;;;5.45;;
75506;SDS011;64086;43.220;27.878;2023-04-03T14:14:02;8.05;;;6.03;;
75506;SDS011;64086;43.220;27.878;2023-04-03T14:16:32;8.25;;;5.82;;
75506;SDS011;64086;43.220;27.878;2023-04-03T14:19:02;10.23;;;5.32;;
75506;SDS011;64086;43.220;27.878;2023-04-03T14:21:28;8.57;;;5.88;;
75506;SDS011;64086;43.220;27.878;2023-04-03T14:23:54;8.85;;;5.40;;
75506;SDS011;64086;43.220;27.878;2023-04-03T14:26:20;8.82;;;5.70;;
75506;SDS011;64086;43.220;27.878;2023-04-03T14:28:48;7.72;;;5.25;;
75506;SDS011;64086;43.220;27.878;2023-04-03T14:31:16;8.48;;;5.47;;
75506;SDS011;64086;43.220;27.878;2023-04-03T14:33:43;7.63;;;5.57;;
75506;SDS011;64086;43.220;27.878;2023-04-03T14:38:41;7.05;;;5.25;;
75506;SDS011;64086;43.220;27.878;2023-04-03T14:41:08;9.93;;;6.15;;
75506;SDS011;64086;43.220;27.878;2023-04-03T14:43:37;7.53;;;5.00;;
75506;SDS011;64086;43.220;27.878;2023-04-03T14:46:03;7.32;;;5.20;;
75506;SDS011;64086;43.220;27.878;2023-04-03T14:48:30;7.03;;;5.03;;
75506;SDS011;64086;43.220;27.878;2023-04-03T14:50:55;7.75;;;5.00;;
75506;SDS011;64086;43.220;27.878;2023-04-03T14:53:21;6.78;;;4.88;;
75506;SDS011;64086;43.220;27.878;2023-04-03T14:55:50;7.07;;;5.22;;
75506;SDS011;64086;43.220;27.878;2023-04-03T14:58:17;6.65;;;4.78;;
75506;SDS011;64086;43.220;27.878;2023-04-03T15:00:44;6.40;;;4.90;;
75506;SDS011;64086;43.220;27.878;2023-04-03T15:03:13;7.18;;;5.15;;
75506;SDS011;64086;43.220;27.878;2023-04-03T15:05:44;5.55;;;4.47;;
75506;SDS011;64086;43.220;27.878;2023-04-03T15:08:18;5.82;;;4.65;;
75506;SDS011;64086;43.220;27.878;2023-04-03T15:10:45;6.55;;;5.03;;
75506;SDS011;64086;43.220;27.878;2023-04-03T15:13:11;6.50;;;5.18;;
75506;SDS011;64086;43.220;27.878;2023-04-03T15:15:38;6.05;;;4.65;;
75506;SDS011;64086;43.220;27.878;2023-04-03T15:18:03;5.90;;;4.40;;
75506;SDS011;64086;43.220;27.878;2023-04-03T15:20:29;6.95;;;4.78;;
75506;SDS011;64086;43.220;27.878;2023-04-03T15:22:58;6.47;;;4.93;;
75506;SDS011;64086;43.220;27.878;2023-04-03T15:25:27;6.60;;;5.28;;
75506;SDS011;64086;43.220;27.878;2023-04-03T15:27:54;7.75;;;4.72;;
75506;SDS011;64086;43.220;27.878;2023-04-03T15:30:20;6.38;;;4.43;;
75506;SDS011;64086;43.220;27.878;2023-04-03T15:32:46;7.47;;;4.32;;
75506;SDS011;64086;43.220;27.878;2023-04-03T15:35:12;5.63;;;4.38;;
75506;SDS011;64086;43.220;27.878;2023-04-03T15:37:38;5.55;;;4.18;;
75506;SDS011;64086;43.220;27.878;2023-04-03T15:40:04;5.20;;;4.25;;
75506;SDS011;64086;43.220;27.878;2023-04-03T15:42:30;5.95;;;4.40;;
75506;SDS011;64086;43.220;27.878;2023-04-03T15:44:56;6.03;;;4.50;;
75506;SDS011;64086;43.220;27.878;2023-04-03T15:47:21;5.85;;;4.10;;
75506;SDS011;64086;43.220;27.878;2023-04-03T15:49:47;6.40;;;4.20;;
75506;SDS011;64086;43.220;27.878;2023-04-03T15:52:12;6.95;;;5.30;;
75506;SDS011;64086;43.220;27.878;2023-04-03T15:54:38;5.22;;;4.20;;
75506;SDS011;64086;43.220;27.878;2023-04-03T15:57:03;6.40;;;4.90;;
75506;SDS011;64086;43.220;27.878;2023-04-03T15:59:29;5.82;;;4.72;;
75506;SDS011;64086;43.220;27.878;2023-04-03T16:01:57;5.10;;;4.13;;
75506;SDS011;64086;43.220;27.878;2023-04-03T16:04:23;5.68;;;4.43;;
75506;SDS011;64086;43.220;27.878;2023-04-03T16:06:49;6.35;;;4.43;;
75506;SDS011;64086;43.220;27.878;2023-04-03T16:09:15;5.07;;;4.20;;
75506;SDS011;64086;43.220;27.878;2023-04-03T16:11:40;5.43;;;4.43;;
75506;SDS011;64086;43.220;27.878;2023-04-03T16:14:07;7.38;;;5.30;;
75506;SDS011;64086;43.220;27.878;2023-04-03T16:16:32;6.07;;;4.72;;
75506;SDS011;64086;43.220;27.878;2023-04-03T16:18:58;6.97;;;5.20;;
75506;SDS011;64086;43.220;27.878;2023-04-03T16:21:24;6.50;;;5.15;;
75506;SDS011;64086;43.220;27.878;2023-04-03T16:23:49;7.57;;;5.63;;
75506;SDS011;64086;43.220;27.878;2023-04-03T16:26:15;6.80;;;5.63;;
75506;SDS011;64086;43.220;27.878;2023-04-03T16:28:42;8.32;;;6.20;;
75506;SDS011;64086;43.220;27.878;2023-04-03T16:31:08;6.40;;;5.20;;
75506;SDS011;64086;43.220;27.878;2023-04-03T16:33:33;7.43;;;5.32;;
75506;SDS011;64086;43.220;27.878;2023-04-03T16:35:59;7.45;;;5.38;;
75506;SDS011;64086;43.220;27.878;2023-04-03T16:38:24;7.40;;;5.53;;
75506;SDS011;64086;43.220;27.878;2023-04-03T16:40:50;12.15;;;9.10;;
75506;SDS011;64086;43.220;27.878;2023-04-03T16:43:17;9.57;;;7.30;;
75506;SDS011;64086;43.220;27.878;2023-04-03T16:45:43;8.77;;;6.60;;
75506;SDS011;64086;43.220;27.878;2023-04-03T16:48:08;10.25;;;7.45;;
75506;SDS011;64086;43.220;27.878;2023-04-03T16:50:34;13.27;;;10.65;;